createdAt,value
2023-04-21T00:01:09.101Z,80.80
2023-04-21T00:03:38.749Z,80.35
2023-04-21T00:06:07.356Z,80.36
2023-04-21T00:08:40.750Z,80.20
2023-04-21T00:11:09.403Z,80.42
2023-04-21T00:13:38.940Z,80.35
2023-04-21T00:16:07.510Z,80.49
2023-04-21T00:18:36.575Z,80.54
2023-04-21T00:21:04.831Z,80.66
2023-04-21T00:23:33.061Z,80.80
2023-04-21T00:26:03.057Z,80.57
2023-04-21T00:28:32.165Z,80.62
2023-04-21T00:31:00.363Z,80.63
2023-04-21T00:33:28.917Z,80.60
2023-04-21T00:35:59.518Z,80.77
2023-04-21T00:38:29.223Z,80.88
2023-04-21T00:40:57.261Z,80.91
2023-04-21T00:43:28.606Z,81.05
2023-04-21T00:45:56.898Z,81.39
2023-04-21T00:48:25.124Z,81.43
2023-04-21T00:50:53.226Z,81.39
2023-04-21T00:53:21.412Z,81.58
2023-04-21T00:55:50.469Z,81.39
2023-04-21T00:58:19.455Z,81.33
2023-04-21T01:00:47.846Z,81.34
2023-04-21T01:03:16.123Z,81.18
2023-04-21T01:05:44.545Z,80.94
2023-04-21T01:08:13.642Z,81.03
2023-04-21T01:10:44.204Z,81.18
2023-04-21T01:13:13.658Z,81.21
2023-04-21T01:15:41.928Z,81.31
2023-04-21T01:18:10.136Z,81.47
2023-04-21T01:20:39.065Z,81.63
2023-04-21T01:23:07.553Z,81.54
2023-04-21T01:25:36.185Z,81.38
2023-04-21T01:28:06.251Z,81.13
2023-04-21T01:30:34.255Z,81.19
2023-04-21T01:33:02.568Z,81.13
2023-04-21T01:35:31.199Z,81.18
2023-04-21T01:37:59.376Z,81.04
2023-04-21T01:40:27.283Z,81.20
2023-04-21T01:42:56.711Z,81.28
2023-04-21T01:45:24.804Z,81.11
2023-04-21T01:47:52.907Z,81.22
2023-04-21T01:50:20.983Z,81.36
2023-04-21T01:52:49.155Z,81.41
2023-04-21T01:55:17.568Z,81.15
2023-04-21T01:57:46.113Z,81.10
2023-04-21T02:00:14.927Z,81.41
2023-04-21T02:02:46.608Z,81.40
2023-04-21T02:05:15.521Z,81.31
2023-04-21T02:07:43.748Z,81.20
2023-04-21T02:10:11.948Z,81.36
2023-04-21T02:12:41.184Z,81.35
2023-04-21T02:15:11.543Z,81.17
2023-04-21T02:17:40.580Z,81.14
2023-04-21T02:20:09.094Z,81.09
2023-04-21T02:22:38.458Z,81.21
2023-04-21T02:25:06.483Z,81.10
2023-04-21T02:27:34.929Z,81.11
2023-04-21T02:30:03.969Z,80.92
2023-04-21T02:32:32.758Z,80.77
2023-04-21T02:35:01.127Z,80.40
2023-04-21T02:37:29.585Z,80.08
2023-04-21T02:39:57.622Z,80.10
2023-04-21T02:42:25.833Z,80.12
2023-04-21T02:44:53.820Z,80.19
2023-04-21T02:47:22.280Z,80.19
2023-04-21T02:49:50.474Z,80.31
2023-04-21T02:52:20.340Z,80.36
2023-04-21T02:54:48.319Z,80.56
2023-04-21T02:57:16.383Z,80.64
2023-04-21T02:59:44.406Z,80.82
2023-04-21T03:02:12.637Z,80.90
2023-04-21T03:04:41.173Z,81.05
2023-04-21T03:07:13.384Z,81.22
2023-04-21T03:09:41.431Z,81.44
2023-04-21T03:12:09.273Z,81.50
2023-04-21T03:14:37.700Z,81.53
2023-04-21T03:17:05.802Z,81.59
2023-04-21T03:19:33.908Z,81.49
2023-04-21T03:22:01.898Z,81.64
2023-04-21T03:24:30.722Z,81.75
2023-04-21T03:26:59.411Z,81.77
2023-04-21T03:29:28.351Z,81.86
2023-04-21T03:31:56.466Z,82.04
2023-04-21T03:34:24.842Z,82.21
2023-04-21T03:36:52.824Z,82.44
2023-04-21T03:39:20.829Z,82.63
2023-04-21T03:41:50.113Z,82.70
2023-04-21T03:44:18.016Z,82.82
2023-04-21T03:46:46.118Z,82.96
2023-04-21T03:49:14.109Z,83.11
2023-04-21T03:51:42.033Z,83.35
2023-04-21T03:54:09.965Z,83.53
2023-04-21T03:56:37.864Z,83.94
2023-04-21T03:59:06.296Z,84.30
2023-04-21T04:01:34.790Z,84.38
2023-04-21T04:04:02.902Z,84.67
2023-04-21T04:06:33.317Z,84.50
2023-04-21T04:09:04.719Z,84.56
2023-04-21T04:11:33.046Z,84.62
2023-04-21T04:14:01.038Z,84.62
2023-04-21T04:16:29.516Z,84.66
2023-04-21T04:18:58.774Z,84.68
2023-04-21T04:21:27.611Z,84.57
2023-04-21T04:23:55.845Z,84.46
2023-04-21T04:26:25.005Z,84.40
2023-04-21T04:28:53.688Z,84.14
2023-04-21T04:31:22.640Z,84.20
2023-04-21T04:33:54.133Z,84.07
2023-04-21T04:36:24.268Z,83.91
2023-04-21T04:38:52.200Z,83.83
2023-04-21T04:41:21.146Z,83.49
2023-04-21T04:43:49.382Z,82.89
2023-04-21T04:46:17.434Z,82.87
2023-04-21T04:48:45.761Z,82.36
2023-04-21T04:51:13.832Z,82.10
2023-04-21T04:53:42.120Z,81.70
2023-04-21T04:56:10.004Z,81.82
2023-04-21T04:58:37.939Z,81.62
2023-04-21T05:01:16.123Z,81.42
2023-04-21T05:03:44.730Z,81.24
2023-04-21T05:06:14.367Z,81.06
2023-04-21T05:08:42.596Z,80.89
2023-04-21T05:11:10.751Z,80.80
2023-04-21T05:13:40.211Z,80.89
2023-04-21T05:16:09.916Z,80.61
2023-04-21T05:18:38.340Z,80.59
2023-04-21T05:21:06.281Z,80.43
2023-04-21T05:23:35.030Z,80.44
2023-04-21T05:26:04.458Z,80.32
2023-04-21T05:28:33.271Z,80.44
2023-04-21T05:31:01.487Z,80.00
2023-04-21T05:33:32.058Z,79.79
2023-04-21T05:36:00.290Z,79.92
2023-04-21T05:38:30.141Z,79.71
2023-04-21T05:40:58.310Z,79.54
2023-04-21T05:43:26.854Z,79.32
2023-04-21T05:45:54.994Z,79.16
2023-04-21T05:48:23.531Z,78.93
2023-04-21T05:50:51.487Z,78.11
2023-04-21T05:53:19.414Z,77.52
2023-04-21T05:55:47.364Z,77.77
2023-04-21T05:58:15.666Z,77.44
2023-04-21T06:00:43.793Z,77.41
2023-04-21T06:03:12.623Z,77.53
2023-04-21T06:05:41.121Z,77.33
2023-04-21T06:08:09.446Z,77.28
2023-04-21T06:10:37.587Z,77.38
2023-04-21T06:13:05.532Z,77.51
2023-04-21T06:15:33.878Z,77.23
2023-04-21T06:18:01.999Z,77.20
2023-04-21T06:20:30.436Z,77.11
2023-04-21T06:22:58.636Z,77.10
2023-04-21T06:25:26.508Z,76.97
2023-04-21T06:27:54.490Z,76.72
2023-04-21T06:30:22.569Z,77.08
2023-04-21T06:32:50.581Z,77.02
2023-04-21T06:35:20.546Z,76.60
2023-04-21T06:37:48.493Z,76.54
2023-04-21T06:40:16.513Z,76.05
2023-04-21T06:42:44.488Z,75.29
2023-04-21T06:45:12.385Z,75.03
2023-04-21T06:47:40.383Z,74.46
2023-04-21T06:50:09.210Z,74.12
2023-04-21T06:52:38.320Z,73.24
2023-04-21T06:55:06.941Z,72.16
2023-04-21T06:57:35.321Z,71.35
2023-04-21T07:00:05.879Z,70.65
2023-04-21T07:02:34.244Z,70.12
2023-04-21T07:05:02.180Z,69.47
2023-04-21T07:07:30.974Z,68.77
2023-04-21T07:09:58.843Z,68.95
2023-04-21T07:12:26.923Z,68.61
2023-04-21T07:14:54.840Z,68.36
2023-04-21T07:17:22.709Z,67.61
2023-04-21T07:19:50.666Z,66.66
2023-04-21T07:22:18.705Z,66.15
2023-04-21T07:24:49.117Z,65.60
2023-04-21T07:27:19.480Z,65.47
2023-04-21T07:29:47.353Z,64.00
2023-04-21T07:32:15.714Z,63.65
2023-04-21T07:34:47.023Z,63.62
2023-04-21T07:37:15.120Z,63.12
2023-04-21T07:39:43.160Z,62.51
2023-04-21T07:42:11.367Z,61.12
2023-04-21T07:44:39.226Z,60.53
2023-04-21T07:47:07.289Z,60.39
2023-04-21T07:49:35.435Z,60.63
2023-04-21T07:52:03.327Z,60.77
2023-04-21T07:54:32.265Z,60.54
2023-04-21T07:57:01.796Z,59.88
2023-04-21T07:59:29.753Z,59.43
2023-04-21T08:01:57.790Z,58.93
2023-04-21T08:04:26.143Z,58.93
2023-04-21T08:06:54.401Z,58.59
2023-04-21T08:09:22.955Z,59.15
2023-04-21T08:11:51.288Z,59.09
2023-04-21T08:14:19.291Z,59.37
2023-04-21T08:16:47.685Z,59.11
2023-04-21T08:19:15.877Z,59.05
2023-04-21T08:21:43.748Z,59.45
2023-04-21T08:24:11.723Z,59.65
2023-04-21T08:26:40.187Z,59.29
2023-04-21T08:29:10.654Z,59.61
2023-04-21T08:31:39.364Z,59.55
2023-04-21T08:34:07.403Z,59.94
2023-04-21T08:36:35.507Z,60.10
2023-04-21T08:39:04.255Z,60.68
2023-04-21T08:41:32.193Z,61.00
2023-04-21T08:44:00.378Z,61.18
2023-04-21T08:46:28.395Z,61.76
2023-04-21T08:48:59.574Z,61.14
2023-04-21T08:51:27.738Z,61.45
2023-04-21T08:53:55.902Z,61.73
2023-04-21T08:56:24.680Z,61.76
2023-04-21T08:58:52.948Z,62.33
2023-04-21T09:01:21.208Z,61.74
2023-04-21T09:03:49.198Z,61.97
2023-04-21T09:06:17.727Z,62.48
2023-04-21T09:08:58.539Z,62.68
2023-04-21T09:11:26.503Z,63.52
2023-04-21T09:13:54.385Z,63.63
2023-04-21T09:16:22.681Z,64.09
2023-04-21T09:18:51.736Z,64.73
2023-04-21T09:21:20.496Z,64.31
2023-04-21T09:23:49.478Z,64.21
2023-04-21T09:26:18.104Z,64.08
2023-04-21T09:28:46.542Z,63.82
2023-04-21T09:31:16.506Z,63.70
2023-04-21T09:33:56.568Z,64.12
2023-04-21T09:36:28.101Z,63.72
2023-04-21T09:39:29.146Z,64.28
2023-04-21T09:41:51.197Z,63.55
2023-04-21T09:44:19.453Z,63.01
2023-04-21T09:46:48.500Z,64.23
2023-04-21T09:49:20.086Z,64.45
2023-04-21T09:56:52.030Z,66.01
2023-04-21T09:59:22.345Z,65.48
2023-04-21T10:01:51.562Z,65.66
2023-04-21T10:04:20.028Z,65.76
2023-04-21T10:06:48.747Z,65.62
2023-04-21T10:09:16.751Z,65.88
2023-04-21T10:11:44.934Z,66.00
2023-04-21T10:14:12.823Z,66.34
2023-04-21T10:16:42.162Z,66.83
2023-04-21T10:19:26.175Z,67.08
2023-04-21T10:21:59.954Z,66.39
2023-04-21T10:24:29.163Z,66.15
2023-04-21T10:26:59.500Z,65.56
2023-04-21T10:29:43.649Z,64.27
2023-04-21T10:32:38.495Z,64.11
2023-04-21T10:35:08.903Z,64.44
2023-04-21T10:37:36.780Z,63.80
2023-04-21T10:40:09.667Z,62.94
2023-04-21T10:42:38.013Z,61.96
2023-04-21T10:45:09.976Z,62.57
2023-04-21T10:47:45.466Z,62.69
2023-04-21T10:50:14.745Z,62.27
2023-04-21T10:53:06.285Z,61.99
2023-04-21T10:55:34.163Z,62.57
2023-04-21T10:58:02.771Z,62.49
2023-04-21T11:00:30.831Z,62.45
2023-04-21T11:03:00.270Z,61.87
2023-04-21T11:05:32.326Z,61.57
2023-04-21T11:08:06.563Z,61.14
2023-04-21T11:10:47.006Z,59.32
2023-04-21T11:13:14.905Z,59.15
2023-04-21T11:15:52.917Z,57.79
2023-04-21T11:18:21.014Z,58.16
2023-04-21T11:20:49.003Z,58.13
2023-04-21T11:23:18.917Z,57.62
2023-04-21T11:25:49.526Z,57.33
2023-04-21T11:28:22.932Z,56.49
2023-04-21T11:30:50.914Z,56.92
2023-04-21T11:33:19.331Z,56.97
2023-04-21T11:35:47.219Z,57.44
2023-04-21T11:38:16.769Z,57.30
2023-04-21T11:40:47.773Z,55.99
2023-04-21T11:43:15.650Z,55.37
2023-04-21T11:45:43.567Z,55.71
2023-04-21T11:48:21.168Z,55.96
2023-04-21T11:50:49.706Z,56.23
2023-04-21T11:53:18.044Z,56.08
2023-04-21T11:55:45.997Z,55.82
2023-04-21T11:58:16.317Z,55.80
2023-04-21T12:00:45.524Z,56.59
2023-04-21T12:03:14.066Z,56.57
2023-04-21T12:05:42.234Z,56.22
2023-04-21T12:08:14.795Z,56.15
2023-04-21T12:10:44.997Z,56.00
2023-04-21T12:13:13.647Z,55.79
2023-04-21T12:15:41.755Z,55.54
2023-04-21T12:18:12.873Z,55.79
2023-04-21T12:20:48.606Z,55.66
2023-04-21T12:23:17.425Z,55.28
2023-04-21T12:25:47.015Z,55.33
2023-04-21T12:28:16.122Z,55.10
2023-04-21T12:30:44.559Z,54.38
2023-04-21T12:33:13.229Z,54.33
2023-04-21T12:35:41.347Z,54.50
2023-04-21T12:38:09.441Z,54.55
2023-04-21T12:40:37.526Z,54.07
2023-04-21T12:43:05.763Z,53.59
2023-04-21T12:45:33.889Z,52.95
2023-04-21T12:48:01.894Z,52.34
2023-04-21T12:50:30.542Z,51.39
2023-04-21T12:52:59.044Z,50.74
2023-04-21T12:55:26.982Z,50.37
2023-04-21T12:57:54.916Z,51.15
2023-04-21T13:00:22.869Z,51.12
2023-04-21T13:02:51.334Z,50.65
2023-04-21T13:05:19.477Z,50.31
2023-04-21T13:07:47.702Z,50.48
2023-04-21T13:10:16.190Z,51.08
2023-04-21T13:12:44.711Z,50.95
2023-04-21T13:15:12.586Z,50.98
2023-04-21T13:17:41.476Z,50.22
2023-04-21T13:20:09.663Z,50.51
2023-04-21T13:22:38.075Z,50.62
2023-04-21T13:25:06.139Z,50.68
2023-04-21T13:27:35.046Z,50.00
2023-04-21T13:30:03.024Z,49.88
2023-04-21T13:32:31.279Z,49.70
2023-04-21T13:34:59.251Z,49.45
2023-04-21T13:37:27.197Z,49.45
2023-04-21T13:39:55.305Z,49.35
2023-04-21T13:42:23.218Z,49.02
2023-04-21T13:44:51.155Z,49.10
2023-04-21T13:47:19.012Z,48.62
2023-04-21T13:49:47.362Z,48.54
2023-04-21T13:52:15.232Z,48.32
2023-04-21T13:54:43.232Z,47.99
2023-04-21T13:57:11.260Z,48.10
2023-04-21T13:59:39.356Z,48.27
2023-04-21T14:02:07.705Z,48.13
2023-04-21T14:04:37.473Z,47.84
2023-04-21T14:07:08.234Z,47.74
2023-04-21T14:09:37.069Z,48.08
2023-04-21T14:12:05.010Z,47.68
2023-04-21T14:17:05.945Z,47.56
2023-04-21T14:19:36.234Z,47.38
2023-04-21T14:22:05.916Z,47.75
2023-04-21T14:24:34.093Z,47.83
2023-04-21T14:27:02.200Z,47.39
2023-04-21T14:29:30.413Z,47.48
2023-04-21T14:31:59.562Z,47.60
2023-04-21T14:34:27.681Z,48.04
2023-04-21T14:36:56.021Z,48.20
2023-04-21T14:39:24.139Z,48.84
2023-04-21T14:41:52.286Z,49.52
2023-04-21T14:44:20.432Z,49.75
2023-04-21T14:47:00.819Z,50.07
2023-04-21T14:49:34.245Z,50.33
2023-04-21T14:52:03.688Z,50.96
2023-04-21T14:54:31.788Z,53.14
2023-04-21T14:57:17.828Z,55.22
2023-04-21T14:59:51.617Z,56.24
2023-04-21T15:02:20.789Z,56.61
2023-04-21T15:04:49.300Z,57.02
2023-04-21T15:07:23.105Z,57.12
2023-04-21T15:09:52.231Z,57.44
2023-04-21T15:12:20.518Z,57.65
2023-04-21T15:14:48.592Z,58.48
2023-04-21T15:17:16.746Z,58.83
2023-04-21T15:19:44.812Z,59.10
2023-04-21T15:22:12.697Z,59.67
2023-04-21T15:24:40.966Z,60.26
2023-04-21T15:27:09.700Z,60.74
2023-04-21T15:29:38.184Z,61.09
2023-04-21T15:32:06.277Z,61.12
2023-04-21T15:34:34.259Z,61.39
2023-04-21T15:37:02.178Z,61.47
2023-04-21T15:39:30.110Z,62.03
2023-04-21T15:41:59.303Z,62.50
2023-04-21T15:44:27.509Z,63.45
2023-04-21T15:46:56.960Z,63.87
2023-04-21T15:49:27.474Z,63.94
2023-04-21T15:51:58.647Z,64.60
2023-04-21T15:54:26.638Z,65.57
2023-04-21T15:56:54.591Z,66.42
2023-04-21T15:59:23.824Z,67.13
2023-04-21T16:01:53.952Z,67.61
2023-04-21T16:04:22.157Z,68.33
2023-04-21T16:06:50.386Z,68.12
2023-04-21T16:09:18.478Z,69.58
2023-04-21T16:11:46.494Z,69.92
2023-04-21T16:14:18.795Z,70.51
2023-04-21T16:16:47.265Z,71.17
2023-04-21T16:19:16.267Z,71.33
2023-04-21T16:21:44.274Z,71.71
2023-04-21T16:24:12.370Z,71.59
2023-04-21T16:26:41.564Z,71.92
2023-04-21T16:29:09.572Z,72.28
2023-04-21T16:31:37.886Z,72.55
2023-04-21T16:34:08.842Z,72.79
2023-04-21T16:36:37.279Z,73.30
2023-04-21T16:39:05.875Z,73.68
2023-04-21T16:41:34.919Z,74.02
2023-04-21T16:44:03.114Z,74.19
2023-04-21T16:46:31.147Z,74.34
2023-04-21T16:48:59.358Z,73.92
2023-04-21T16:51:28.680Z,73.89
2023-04-21T16:53:56.840Z,74.06
2023-04-21T16:56:25.316Z,74.02
2023-04-21T16:58:53.389Z,74.36
2023-04-21T17:01:21.435Z,74.34
2023-04-21T17:03:50.833Z,74.41
2023-04-21T17:06:21.474Z,74.23
2023-04-21T17:09:00.326Z,73.85
2023-04-21T17:11:31.619Z,74.01
2023-04-21T17:13:59.600Z,73.99
2023-04-21T17:16:27.595Z,73.86
2023-04-21T17:18:56.222Z,73.97
2023-04-21T17:21:24.258Z,73.76
2023-04-21T17:23:52.330Z,73.56
2023-04-21T17:26:20.270Z,73.52
2023-04-21T17:28:48.465Z,73.54
2023-04-21T17:31:16.661Z,73.52
2023-04-21T17:33:46.963Z,73.19
2023-04-21T17:36:17.673Z,73.13
2023-04-21T17:38:45.886Z,73.28
2023-04-21T17:41:13.915Z,73.37
2023-04-21T17:43:42.134Z,73.31
2023-04-21T17:46:11.393Z,73.29
2023-04-21T17:48:39.405Z,73.39
2023-04-21T17:51:07.303Z,73.68
2023-04-21T17:53:35.828Z,73.53
2023-04-21T17:56:03.893Z,73.62
2023-04-21T17:58:34.136Z,73.87
2023-04-21T18:01:02.216Z,73.62
2023-04-21T18:03:30.395Z,73.46
2023-04-21T18:05:58.639Z,73.02
2023-04-21T18:08:27.109Z,73.00
2023-04-21T18:10:55.248Z,72.69
2023-04-21T18:13:23.106Z,72.38
2023-04-21T18:15:51.166Z,72.39
2023-04-21T18:18:19.131Z,72.30
2023-04-21T18:20:47.119Z,72.33
2023-04-21T18:23:15.055Z,72.42
2023-04-21T18:25:43.414Z,72.27
2023-04-21T18:28:12.977Z,72.39
2023-04-21T18:30:41.375Z,72.26
2023-04-21T18:33:10.196Z,72.13
2023-04-21T18:35:38.361Z,72.16
2023-04-21T18:38:08.306Z,72.16
2023-04-21T18:40:37.448Z,72.19
2023-04-21T18:43:05.476Z,72.05
2023-04-21T18:45:34.239Z,72.17
2023-04-21T18:48:02.373Z,72.28
2023-04-21T18:50:32.544Z,72.30
2023-04-21T18:53:00.532Z,72.35
2023-04-21T18:55:29.590Z,72.91
2023-04-21T18:57:57.548Z,73.21
2023-04-21T19:00:25.779Z,73.41
2023-04-21T19:02:54.631Z,73.50
2023-04-21T19:05:22.720Z,73.42
2023-04-21T19:07:50.793Z,73.42
2023-04-21T19:10:18.830Z,73.39
2023-04-21T19:12:46.915Z,73.23
2023-04-21T19:15:15.105Z,73.32
2023-04-21T19:17:43.254Z,73.20
2023-04-21T19:20:11.743Z,73.35
2023-04-21T19:22:40.113Z,73.26
2023-04-21T19:25:08.706Z,73.25
2023-04-21T19:27:37.512Z,73.18
2023-04-21T19:30:05.954Z,73.06
2023-04-21T19:32:34.274Z,72.63
2023-04-21T19:35:02.549Z,72.27
2023-04-21T19:37:32.314Z,72.05
2023-04-21T19:40:02.386Z,71.68
2023-04-21T19:42:30.759Z,71.49
2023-04-21T19:44:58.943Z,71.56
2023-04-21T19:47:27.003Z,71.54
2023-04-21T19:49:54.974Z,71.66
2023-04-21T19:52:23.049Z,71.74
2023-04-21T19:54:51.137Z,71.72
2023-04-21T19:57:19.126Z,71.91
2023-04-21T19:59:49.204Z,72.10
2023-04-21T20:02:17.267Z,72.16
2023-04-21T20:04:45.429Z,72.27
2023-04-21T20:07:13.352Z,72.22
2023-04-21T20:09:41.482Z,72.39
2023-04-21T20:12:09.493Z,72.35
2023-04-21T20:14:39.049Z,72.37
2023-04-21T20:17:07.249Z,72.42
2023-04-21T20:19:35.838Z,72.55
2023-04-21T20:22:04.507Z,72.76
2023-04-21T20:24:32.893Z,72.92
2023-04-21T20:27:00.912Z,73.29
2023-04-21T20:29:28.948Z,73.44
2023-04-21T20:31:57.787Z,73.77
2023-04-21T20:34:26.070Z,73.90
2023-04-21T20:36:57.705Z,73.99
2023-04-21T20:39:25.695Z,74.14
2023-04-21T20:42:08.904Z,74.30
2023-04-21T20:44:42.743Z,74.55
2023-04-21T20:47:11.571Z,74.70
2023-04-21T20:49:40.585Z,74.74
2023-04-21T20:52:10.149Z,74.87
2023-04-21T20:54:38.724Z,74.84
2023-04-21T20:57:07.735Z,74.86
2023-04-21T20:59:36.022Z,74.92
2023-04-21T21:02:05.692Z,75.10
2023-04-21T21:04:34.253Z,75.25
2023-04-21T21:07:02.801Z,75.52
2023-04-21T21:09:31.372Z,75.77
2023-04-21T21:11:59.547Z,76.11
2023-04-21T21:14:27.575Z,76.55
2023-04-21T21:16:56.595Z,76.92
2023-04-21T21:19:24.719Z,77.03
2023-04-21T21:21:52.651Z,77.26
2023-04-21T21:24:20.698Z,77.44
2023-04-21T21:26:48.753Z,77.56
2023-04-21T21:29:16.667Z,77.77
2023-04-21T21:31:44.628Z,77.89
2023-04-21T21:34:12.990Z,78.03
2023-04-21T21:36:41.646Z,78.28
2023-04-21T21:39:11.300Z,78.41
2023-04-21T21:41:39.841Z,78.50
2023-04-21T21:44:08.330Z,78.83
2023-04-21T21:46:36.418Z,78.86
2023-04-21T21:49:04.885Z,78.85
2023-04-21T21:51:32.800Z,78.75
2023-04-21T21:54:01.065Z,78.34
2023-04-21T21:56:29.233Z,78.16
2023-04-21T21:58:57.160Z,77.75
2023-04-21T22:01:25.086Z,77.48
2023-04-21T22:03:53.930Z,77.29
2023-04-21T22:06:26.821Z,77.11
2023-04-21T22:08:54.954Z,76.92
2023-04-21T22:11:22.923Z,76.80
2023-04-21T22:13:51.535Z,76.75
2023-04-21T22:16:19.594Z,76.78
2023-04-21T22:18:48.451Z,76.88
2023-04-21T22:21:16.465Z,76.81
2023-04-21T22:23:44.522Z,76.75
2023-04-21T22:26:12.477Z,76.56
2023-04-21T22:28:41.997Z,76.77
2023-04-21T22:31:10.652Z,77.06
2023-04-21T22:33:38.641Z,77.37
2023-04-21T22:36:09.661Z,77.51
2023-04-21T22:38:39.071Z,77.57
2023-04-21T22:41:07.216Z,77.66
2023-04-21T22:43:35.899Z,77.61
2023-04-21T22:46:07.044Z,77.49
2023-04-21T22:48:37.211Z,77.40
2023-04-21T22:51:06.348Z,77.27
2023-04-21T22:53:34.645Z,77.23
2023-04-21T22:56:02.701Z,77.15
2023-04-21T22:58:31.066Z,76.91
2023-04-21T23:00:58.957Z,76.82
2023-04-21T23:03:27.198Z,76.78
2023-04-21T23:05:55.753Z,76.87
2023-04-21T23:08:23.707Z,76.89
2023-04-21T23:10:51.816Z,76.81
2023-04-21T23:13:20.149Z,76.99
2023-04-21T23:15:48.092Z,77.06
2023-04-21T23:18:15.986Z,77.41
2023-04-21T23:20:43.912Z,77.50
2023-04-21T23:23:11.833Z,77.82
2023-04-21T23:25:39.979Z,77.90
2023-04-21T23:28:08.345Z,78.45
2023-04-21T23:30:37.351Z,78.63
2023-04-21T23:33:05.387Z,79.00
2023-04-21T23:35:34.121Z,78.91
2023-04-21T23:38:02.024Z,79.24
2023-04-21T23:40:30.411Z,79.40
2023-04-21T23:42:58.453Z,79.92
2023-04-21T23:45:26.356Z,80.05
2023-04-21T23:47:55.607Z,80.45
2023-04-21T23:50:23.686Z,80.84
2023-04-21T23:52:51.639Z,80.78
2023-04-21T23:55:19.539Z,81.11
2023-04-21T23:57:47.769Z,81.16
